Drummond Island, MI

1:37 AM EST on February 28, 2017 (GMT -0500)
Drummond Island

Weather History for KDRM - November, 2012

Change the Weather History Date:

Monday, November 26, 2012

  Actual Average (KCIU) Record (KCIU)
Temperature  
Mean Temperature 27 °F -  
Max Temperature 30 °F 38 °F 53 °F (1984)
Min Temperature 25 °F 21 °F 2 °F (1978)
Degree Days  
Heating Degree Days 38    
Moisture  
Dew Point 22 °F    
Average Humidity 78    
Maximum Humidity 88    
Minimum Humidity 64    
Precipitation  
Precipitation 0.00 in - - ()
Sea Level Pressure  
Sea Level Pressure 30.07 in    
Wind  
Wind Speed 7 mph (WNW)    
Max Wind Speed 13 mph    
Max Gust Speed 23 mph    
Visibility 10 miles    
Events Snow    
Averages and records for this station are not official NWS values.
T = Trace of Precipitation, MM = Missing Value Source: NWS Daily Summary

Daily Weather History Graph

Daily Weather History Graph

Search for Another Location

Airport or City:

Trip Planner

Search our weather history database for the weather conditions in past years. The results will help you decide how hot, cold, wet, or windy it might be!

Date:

Astronomy

Nov. 26, 2012 Rise Set
Actual Time 7:50 AM EST 4:53 PM EST
Civil Twilight 7:17 AM EST 5:27 PM EST
Nautical Twilight 6:40 AM EST 6:04 PM EST
Astronomical Twilight 6:04 AM EST 6:40 PM EST
Moon 3:48 PM EST (11/26) 5:56 AM EST (11/26)
Length of Visible Light 10h 09m
Length of Day
9h 02m
Waxing Gibbous, 97% of the Moon is Illuminated
Nov 26
Waxing Gibbous
Nov 28
Full
Dec 6
Last Quarter
Dec 13
New
Dec 20
First Quarter

Hourly Weather History & Observations

Time (EST) Temp. Windchill Dew Point Humidity Pressure Visibility Wind Dir Wind Speed Gust Speed Precip Events Conditions
12:16 AM 29.3 °F 23.2 °F 25.3 °F 85% 29.85 in 10.0 mi West 5.8 mph - N/A   Overcast
12:36 AM 29.1 °F 21.3 °F 25.2 °F 85% 29.86 in 10.0 mi West 8.1 mph - N/A   Overcast
12:56 AM 28.2 °F 21.0 °F 24.6 °F 86% 29.87 in 10.0 mi West 6.9 mph - N/A   Mostly Cloudy
1:16 AM 28.0 °F 20.0 °F 24.3 °F 86% 29.87 in 10.0 mi West 8.1 mph - N/A   Mostly Cloudy
1:36 AM 28.2 °F 22.0 °F 24.1 °F 84% 29.88 in 10.0 mi West 5.8 mph 16.1 mph N/A   Scattered Clouds
1:56 AM 28.4 °F 18.0 °F 24.6 °F 86% 29.89 in 10.0 mi WNW 12.7 mph 23.0 mph N/A   Overcast
2:16 AM 28.0 °F 20.0 °F 24.4 °F 86% 29.90 in 10.0 mi WNW 8.1 mph 17.3 mph N/A   Mostly Cloudy
2:36 AM 27.5 °F 20.2 °F 24.4 °F 88% 29.91 in 10.0 mi WNW 6.9 mph - N/A   Scattered Clouds
2:56 AM 27.3 °F 18.4 °F 23.4 °F 85% 29.92 in 10.0 mi WNW 9.2 mph 19.6 mph N/A   Scattered Clouds
3:16 AM 27.5 °F 21.1 °F 23.0 °F 83% 29.93 in 10.0 mi NW 5.8 mph 18.4 mph N/A   Mostly Cloudy
3:36 AM 27.9 °F 19.8 °F 23.7 °F 84% 29.93 in 10.0 mi WNW 8.1 mph - N/A   Overcast
3:56 AM 27.9 °F 17.8 °F 22.8 °F 81% 29.94 in 10.0 mi WNW 11.5 mph 16.1 mph N/A   Overcast
4:16 AM 27.5 °F 18.6 °F 23.0 °F 83% 29.95 in 10.0 mi WNW 9.2 mph - N/A   Overcast
4:36 AM 27.5 °F 18.0 °F 22.6 °F 82% 29.95 in 10.0 mi WNW 10.4 mph - N/A   Overcast
4:56 AM 27.1 °F 21.8 °F 22.1 °F 81% 29.96 in 10.0 mi NW 4.6 mph - N/A   Overcast
5:17 AM 27.0 °F 18.0 °F 21.9 °F 81% 29.97 in 10.0 mi WNW 9.2 mph - N/A   Overcast
5:36 AM 26.6 °F 19.1 °F 21.9 °F 82% 29.98 in 10.0 mi WNW 6.9 mph - N/A Snow Light Snow
5:56 AM 27.0 °F 16.7 °F 23.0 °F 85% 29.98 in 10.0 mi WNW 11.5 mph 17.3 mph N/A Snow Light Snow
6:17 AM 27.1 °F 18.9 °F 23.5 °F 86% 29.99 in 10.0 mi WNW 8.1 mph - N/A   Overcast
6:36 AM 27.3 °F 16.6 °F 23.9 °F 87% 30.00 in 10.0 mi WNW 12.7 mph 19.6 mph N/A   Overcast
6:56 AM 27.0 °F 19.5 °F 23.5 °F 87% 30.00 in 10.0 mi WNW 6.9 mph - N/A Snow Light Snow
7:16 AM 26.8 °F 17.7 °F 23.2 °F 86% 30.01 in 10.0 mi WNW 9.2 mph - N/A   Overcast
7:36 AM 26.8 °F 17.1 °F 23.4 °F 87% 30.02 in 10.0 mi NW 10.4 mph - N/A   Overcast
7:56 AM 26.6 °F 16.8 °F 23.0 °F 86% 30.03 in 10.0 mi WNW 10.4 mph - N/A   Overcast
8:16 AM 26.6 °F 19.1 °F 22.8 °F 86% 30.03 in 10.0 mi WNW 6.9 mph - N/A   Overcast
8:36 AM 27.0 °F 20.5 °F 23.4 °F 86% 30.04 in 10.0 mi WNW 5.8 mph 16.1 mph N/A   Overcast
8:56 AM 27.1 °F 19.7 °F 23.5 °F 86% 30.04 in 10.0 mi WNW 6.9 mph - N/A   Overcast
9:17 AM 27.3 °F 18.4 °F 23.7 °F 86% 30.05 in 10.0 mi NW 9.2 mph - N/A   Overcast
9:36 AM 27.5 °F 20.2 °F 23.4 °F 84% 30.06 in 10.0 mi WNW 6.9 mph - N/A   Overcast
9:56 AM 27.5 °F 17.4 °F 23.0 °F 83% 30.07 in 7.0 mi WNW 11.5 mph 20.7 mph N/A Snow Light Snow
10:17 AM 28.0 °F 20.8 °F 22.5 °F 80% 30.08 in 3.0 mi WNW 6.9 mph - N/A Snow Light Snow
10:36 AM 28.2 °F 19.5 °F 22.1 °F 78% 30.09 in 10.0 mi WNW 9.2 mph - N/A   Overcast
10:56 AM 28.4 °F 24.6 °F 21.4 °F 75% 30.10 in 10.0 mi WNW 3.5 mph - N/A   Overcast
11:16 AM 28.9 °F 23.9 °F 21.6 °F 74% 30.09 in 10.0 mi WNW 4.6 mph - N/A   Overcast
11:36 AM 29.3 °F 23.2 °F 19.2 °F 66% 30.09 in 10.0 mi West 5.8 mph - N/A   Overcast
11:56 AM 29.3 °F 23.2 °F 19.4 °F 67% 30.10 in 10.0 mi West 5.8 mph - N/A   Overcast
12:16 PM 29.3 °F 21.5 °F 20.1 °F 69% 30.10 in 10.0 mi WNW 8.1 mph - N/A   Overcast
12:36 PM 29.3 °F 22.3 °F 20.5 °F 70% 30.10 in 10.0 mi NW 6.9 mph - N/A   Overcast
12:56 PM 29.3 °F 22.3 °F 20.8 °F 71% 30.10 in 10.0 mi WNW 6.9 mph - N/A   Overcast
1:16 PM 29.8 °F 23.9 °F 19.8 °F 66% 30.10 in 10.0 mi WNW 5.8 mph - N/A   Overcast
1:36 PM 29.8 °F 23.9 °F 20.3 °F 68% 30.10 in 10.0 mi WNW 5.8 mph - N/A   Overcast
1:57 PM 29.3 °F 24.3 °F 18.9 °F 65% 30.11 in 10.0 mi WNW 4.6 mph - N/A   Overcast
2:16 PM 29.7 °F 22.8 °F 18.9 °F 64% 30.11 in 10.0 mi West 6.9 mph - N/A   Overcast
2:36 PM 29.7 °F 24.7 °F 19.4 °F 66% 30.11 in 10.0 mi WNW 4.6 mph - N/A   Overcast
2:57 PM 29.8 °F 24.9 °F 19.4 °F 65% 30.11 in 10.0 mi WNW 4.6 mph - N/A   Overcast
3:16 PM 29.8 °F - 19.8 °F 66% 30.12 in 10.0 mi Calm Calm - N/A   Overcast
3:36 PM 29.8 °F 26.3 °F 19.9 °F 67% 30.12 in 10.0 mi West 3.5 mph - N/A   Overcast
3:56 PM 29.8 °F 24.9 °F 19.8 °F 66% 30.13 in 10.0 mi West 4.6 mph - N/A   Overcast
4:16 PM 29.7 °F 26.1 °F 19.4 °F 66% 30.13 in 10.0 mi West 3.5 mph - N/A   Overcast
4:36 PM 29.3 °F 22.3 °F 19.0 °F 66% 30.13 in 10.0 mi West 6.9 mph - N/A   Overcast
4:56 PM 29.1 °F 23.0 °F 19.2 °F 67% 30.13 in 10.0 mi WSW 5.8 mph - N/A   Overcast
5:17 PM 28.8 °F 22.6 °F 19.4 °F 68% 30.13 in 10.0 mi West 5.8 mph - N/A   Overcast
5:36 PM 28.2 °F 20.2 °F 19.4 °F 70% 30.13 in 10.0 mi WSW 8.1 mph - N/A   Mostly Cloudy
5:56 PM 28.2 °F 22.0 °F 20.1 °F 72% 30.13 in 10.0 mi West 5.8 mph - N/A   Mostly Cloudy
6:16 PM 28.4 °F 22.2 °F 21.7 °F 76% 30.14 in 10.0 mi WNW 5.8 mph - N/A   Overcast
6:36 PM 28.2 °F 24.4 °F 23.2 °F 81% 30.15 in 10.0 mi WNW 3.5 mph - N/A   Overcast
6:56 PM 28.4 °F 21.2 °F 23.0 °F 80% 30.16 in 10.0 mi NW 6.9 mph - N/A   Overcast
7:16 PM 28.2 °F 18.9 °F 22.8 °F 80% 30.17 in 10.0 mi NW 10.4 mph - N/A   Overcast
7:36 PM 28.2 °F 21.0 °F 23.0 °F 81% 30.17 in 10.0 mi NW 6.9 mph 16.1 mph N/A   Overcast
7:56 PM 28.0 °F 22.8 °F 22.8 °F 81% 30.18 in 10.0 mi WNW 4.6 mph - N/A   Overcast
8:16 PM 28.0 °F 22.8 °F 21.9 °F 78% 30.18 in 10.0 mi WNW 4.6 mph - N/A   Overcast
8:36 PM 27.7 °F 20.4 °F 22.6 °F 81% 30.19 in 10.0 mi WNW 6.9 mph - N/A   Overcast
8:56 PM 27.5 °F 22.2 °F 23.0 °F 83% 30.20 in 10.0 mi NW 4.6 mph - N/A   Overcast
9:16 PM 27.5 °F 22.2 °F 22.5 °F 81% 30.20 in 10.0 mi NNW 4.6 mph - N/A   Overcast
9:36 PM 26.6 °F 22.6 °F 21.7 °F 82% 30.20 in 10.0 mi NW 3.5 mph - N/A   Mostly Cloudy
9:56 PM 26.1 °F 20.5 °F 21.0 °F 81% 30.20 in 10.0 mi NNW 4.6 mph - N/A   Scattered Clouds
10:17 PM 26.4 °F 20.9 °F 21.2 °F 81% 30.21 in 10.0 mi NW 4.6 mph - N/A   Mostly Cloudy
10:36 PM 26.1 °F 21.9 °F 20.5 °F 79% 30.21 in 10.0 mi NNW 3.5 mph - N/A   Overcast
10:56 PM 25.5 °F - 21.0 °F 83% 30.22 in 10.0 mi Calm Calm - N/A   Overcast
11:17 PM 26.2 °F 22.1 °F 21.2 °F 81% 30.22 in 10.0 mi NW 3.5 mph - N/A   Overcast
11:36 PM 26.4 °F 22.4 °F 21.2 °F 81% 30.23 in 10.0 mi NW 3.5 mph - N/A   Overcast
11:56 PM 26.4 °F - 21.6 °F 82% 30.23 in 10.0 mi Calm Calm - N/A   Mostly Cloudy